Time;durP1;ratioP1;P1;durP2;ratioP2;P2;SDS_P1;SDS_P2;PMS_P1;PMS_P2;Temp;Humidity;BMP_temperature;BMP_pressure;BME280_temperature;BME280_humidity;BME280_pressure;Samples;Min_cycle;Max_cycle;Signal;HPM_P1;HPM_P2
2021/12/09 00:01:05;;;;;;;25.08;11.93;;;;;;;4.03;100.00;98512.06;8221411;28;20109;-84
2021/12/09 00:05:08;;;;;;;23.05;12.02;;;;;;;4.02;100.00;98515.88;8218800;28;20047;-86
2021/12/09 00:09:12;;;;;;;25.73;12.85;;;;;;;3.97;100.00;98515.75;8205886;28;20046;-84
2021/12/09 00:13:12;;;;;;;26.33;12.77;;;;;;;3.99;100.00;98504.63;8210992;28;20078;-84
2021/12/09 00:17:12;;;;;;;26.42;11.73;;;;;;;3.96;100.00;98514.09;8206071;28;20516;-86
2021/12/09 00:21:13;;;;;;;23.45;11.60;;;;;;;3.98;100.00;98520.13;8207746;28;20078;-87
2021/12/09 00:25:14;;;;;;;21.17;11.30;;;;;;;4.02;100.00;98520.50;8222611;28;20482;-85
2021/12/09 00:29:15;;;;;;;23.10;10.85;;;;;;;4.03;100.00;98517.53;8192873;28;20062;-84
2021/12/09 00:33:16;;;;;;;22.33;11.88;;;;;;;4.05;100.00;98526.31;8200406;28;20055;-82
2021/12/09 00:37:24;;;;;;;20.50;12.10;;;;;;;3.95;100.00;98530.69;8197989;28;20038;-85
2021/12/09 00:41:25;;;;;;;20.42;10.23;;;;;;;3.89;100.00;98530.56;8192857;28;20047;-84
2021/12/09 00:45:26;;;;;;;20.92;10.95;;;;;;;3.91;100.00;98537.69;8230093;28;20121;-85
2021/12/09 00:49:30;;;;;;;23.55;11.20;;;;;;;3.93;100.00;98538.28;8210836;28;20043;-84
2021/12/09 00:53:30;;;;;;;22.27;10.85;;;;;;;3.89;100.00;98541.47;8225356;28;20057;-85
2021/12/09 00:57:31;;;;;;;22.70;11.35;;;;;;;3.89;100.00;98529.72;8220272;28;20050;-85
2021/12/09 01:01:31;;;;;;;29.90;12.13;;;;;;;3.89;100.00;98527.00;8211707;28;20043;-83
2021/12/09 01:05:32;;;;;;;22.33;12.45;;;;;;;3.84;100.00;98529.63;8223291;28;20102;-83
2021/12/09 01:09:32;;;;;;;20.75;11.32;;;;;;;3.81;100.00;98535.56;8211180;28;20055;-84
2021/12/09 01:13:34;;;;;;;27.23;12.57;;;;;;;3.72;100.00;98531.50;8213265;28;20050;-84
2021/12/09 01:17:35;;;;;;;22.85;12.10;;;;;;;3.63;100.00;98528.34;8189905;28;20189;-85
2021/12/09 01:21:35;;;;;;;22.65;11.90;;;;;;;3.56;100.00;98527.59;8208849;28;20047;-84
2021/12/09 01:25:37;;;;;;;24.85;12.25;;;;;;;3.48;100.00;98526.06;8212715;28;20460;-85
2021/12/09 01:29:41;;;;;;;22.60;11.93;;;;;;;3.37;100.00;98525.00;8231169;28;20042;-85
2021/12/09 01:33:41;;;;;;;25.45;12.18;;;;;;;3.29;100.00;98536.22;8226135;28;20043;-84
2021/12/09 01:37:42;;;;;;;20.75;11.82;;;;;;;3.23;100.00;98534.44;8201343;28;20102;-85
2021/12/09 01:41:42;;;;;;;21.02;11.25;;;;;;;3.20;100.00;98543.06;8216569;28;20058;-85
2021/12/09 01:45:43;;;;;;;21.60;10.88;;;;;;;3.18;100.00;98543.31;8227297;28;20043;-83
2021/12/09 01:49:43;;;;;;;22.17;10.38;;;;;;;3.11;100.00;98552.63;8221502;28;20050;-85
2021/12/09 01:53:46;;;;;;;21.88;11.48;;;;;;;3.09;100.00;98566.44;8211495;28;20389;-84
2021/12/09 01:57:48;;;;;;;24.57;12.50;;;;;;;3.10;100.00;98562.69;8216417;28;20038;-85
2021/12/09 02:01:48;;;;;;;24.65;11.90;;;;;;;3.12;100.00;98565.16;8227451;28;20042;-85
2021/12/09 02:05:50;;;;;;;22.30;11.55;;;;;;;3.13;100.00;98554.06;8217534;28;20035;-85
2021/12/09 02:09:50;;;;;;;23.48;11.32;;;;;;;3.17;100.00;98552.53;8203242;28;20047;-83
2021/12/09 02:13:54;;;;;;;25.15;11.80;;;;;;;3.20;100.00;98554.78;8224997;28;20095;-83
2021/12/09 02:17:56;;;;;;;22.67;11.57;;;;;;;3.18;100.00;98554.19;8218968;28;20047;-85
2021/12/09 02:21:56;;;;;;;21.92;11.18;;;;;;;3.15;100.00;98548.38;8215052;28;20146;-84
2021/12/09 02:25:57;;;;;;;23.95;11.50;;;;;;;3.06;100.00;98547.88;8236193;28;20575;-84
2021/12/09 02:29:57;;;;;;;19.25;9.30;;;;;;;2.94;100.00;98553.31;8206258;28;20046;-83
2021/12/09 02:33:58;;;;;;;19.25;10.40;;;;;;;2.83;100.00;98550.53;8223680;28;20046;-85
2021/12/09 02:37:59;;;;;;;20.35;9.85;;;;;;;2.62;100.00;98551.88;8231304;28;20047;-84
2021/12/09 02:41:59;;;;;;;18.02;9.23;;;;;;;2.41;100.00;98558.56;8228725;28;20177;-85
2021/12/09 02:46:00;;;;;;;19.77;9.13;;;;;;;2.22;100.00;98561.31;8200455;28;20046;-83
2021/12/09 02:50:03;;;;;;;22.38;9.38;;;;;;;2.02;100.00;98544.38;8210071;28;20205;-85
2021/12/09 02:54:05;;;;;;;;;;;;;;;1.88;100.00;98554.59;8202423;28;20059;-83
2021/12/09 02:58:06;;;;;;;21.77;8.77;;;;;;;1.74;100.00;98556.59;8213180;28;19921;-85
2021/12/09 03:02:09;;;;;;;22.05;7.97;;;;;;;1.59;100.00;98561.53;8227353;28;20047;-84
2021/12/09 03:06:10;;;;;;;20.50;8.70;;;;;;;1.51;100.00;98565.34;8223615;28;20030;-84
2021/12/09 03:10:21;;;;;;;23.75;8.38;;;;;;;1.49;100.00;98583.75;8218532;28;20039;-84
2021/12/09 03:14:23;;;;;;;20.88;8.73;;;;;;;1.56;100.00;98589.13;8227490;28;20035;-83
2021/12/09 03:18:23;;;;;;;21.08;8.05;;;;;;;1.74;100.00;98591.06;8205714;28;20035;-83
2021/12/09 03:22:24;;;;;;;23.60;9.13;;;;;;;1.92;100.00;98593.00;8226736;28;20046;-83
2021/12/09 03:26:31;;;;;;;19.10;8.48;;;;;;;2.02;100.00;98604.16;8206627;28;20066;-83
2021/12/09 03:30:32;;;;;;;18.02;7.68;;;;;;;2.09;100.00;98613.09;8199134;28;20035;-84
2021/12/09 03:34:35;;;;;;;20.58;8.73;;;;;;;2.20;100.00;98617.81;8207214;28;20043;-85
2021/12/09 03:38:35;;;;;;;16.02;8.05;;;;;;;2.30;100.00;98619.16;8226465;28;20146;-85
2021/12/09 03:42:36;;;;;;;22.38;7.60;;;;;;;2.36;100.00;98629.13;8223815;28;20046;-85
2021/12/09 03:46:37;;;;;;;15.35;7.15;;;;;;;2.36;100.00;98626.41;8216788;28;20043;-85
2021/12/09 03:50:38;;;;;;;20.50;7.03;;;;;;;2.35;100.00;98636.47;8197635;28;21086;-87
2021/12/09 03:54:40;;;;;;;17.55;7.53;;;;;;;2.40;100.00;98631.16;8204712;28;20182;-86
2021/12/09 03:58:40;;;;;;;14.73;6.27;;;;;;;2.46;100.00;98621.28;8224396;28;20039;-84
2021/12/09 04:02:41;;;;;;;18.63;7.57;;;;;;;2.55;100.00;98619.91;8206649;28;20121;-85
2021/12/09 04:06:42;;;;;;;16.85;6.13;;;;;;;2.63;100.00;98621.50;8206446;28;20042;-83
2021/12/09 04:10:43;;;;;;;15.43;5.28;;;;;;;2.68;100.00;98624.38;8225126;28;20415;-85
2021/12/09 04:14:44;;;;;;;12.48;4.78;;;;;;;2.74;100.00;98624.28;8210670;28;20420;-85
2021/12/09 04:18:44;;;;;;;12.55;5.85;;;;;;;2.82;100.00;98616.88;8224510;28;20045;-84
2021/12/09 04:22:48;;;;;;;16.52;5.50;;;;;;;2.86;100.00;98618.91;8213314;28;20046;-85
2021/12/09 04:26:51;;;;;;;14.77;5.57;;;;;;;2.92;100.00;98630.78;8211201;28;20419;-84
2021/12/09 04:30:52;;;;;;;10.07;4.72;;;;;;;2.97;100.00;98628.16;8204249;28;20055;-83
2021/12/09 04:34:56;;;;;;;11.88;5.25;;;;;;;3.00;100.00;98635.88;8215855;28;20102;-83
2021/12/09 04:38:57;;;;;;;13.68;5.50;;;;;;;3.02;100.00;98636.50;8219903;28;20904;-84
2021/12/09 04:43:00;;;;;;;19.33;6.25;;;;;;;2.99;100.00;98630.69;8201708;28;20046;-84
2021/12/09 04:47:01;;;;;;;16.65;6.53;;;;;;;3.03;100.00;98635.41;8210533;28;20047;-84
2021/12/09 04:51:01;;;;;;;14.23;6.55;;;;;;;3.06;100.00;98637.69;8223603;28;20740;-85
2021/12/09 04:55:04;;;;;;;16.92;7.20;;;;;;;3.05;100.00;98638.75;8185699;28;20086;-85
2021/12/09 04:59:05;;;;;;;19.30;7.80;;;;;;;3.07;100.00;98633.91;8213268;28;20039;-85
2021/12/09 05:03:10;;;;;;;22.05;8.38;;;;;;;3.05;100.00;98633.31;8218648;28;20242;-83
2021/12/09 05:07:11;;;;;;;16.48;7.75;;;;;;;3.02;100.00;98625.59;8218092;28;20073;-86
2021/12/09 05:11:26;;;;;;;22.95;9.10;;;;;;;2.99;100.00;98636.13;8226563;28;20113;-85
2021/12/09 05:15:26;;;;;;;15.82;6.93;;;;;;;2.99;100.00;98642.38;8230164;28;20125;-84
2021/12/09 05:19:27;;;;;;;14.45;8.27;;;;;;;2.97;100.00;98649.94;8219343;28;20042;-84
2021/12/09 05:23:28;;;;;;;17.95;7.32;;;;;;;3.01;100.00;98651.16;8225452;28;20074;-82
2021/12/09 05:27:30;;;;;;;16.88;7.60;;;;;;;3.01;100.00;98651.16;8213189;28;20049;-80
2021/12/09 05:35:49;;;;;;;13.88;6.60;;;;;;;3.00;100.00;98671.25;8227832;28;20179;-82
2021/12/09 05:39:51;;;;;;;14.68;6.70;;;;;;;2.99;100.00;98675.03;8217976;28;20147;-82
2021/12/09 05:43:52;;;;;;;13.20;7.53;;;;;;;2.97;100.00;98672.56;8226507;28;20051;-81
2021/12/09 05:47:52;;;;;;;17.67;8.10;;;;;;;2.95;100.00;98674.69;8213548;28;20101;-81
2021/12/09 05:51:53;;;;;;;18.02;6.70;;;;;;;2.95;100.00;98680.13;8236179;28;20047;-82
2021/12/09 05:55:53;;;;;;;16.58;6.85;;;;;;;2.96;100.00;98680.94;8216881;28;20113;-81
2021/12/09 05:59:55;;;;;;;17.65;6.90;;;;;;;3.01;100.00;98694.72;8225431;28;20050;-80
2021/12/09 06:03:56;;;;;;;20.95;7.88;;;;;;;3.00;100.00;98698.47;8200655;28;20600;-75
2021/12/09 06:07:57;;;;;;;14.98;7.05;;;;;;;2.96;100.00;98695.38;8230397;28;20050;-80
2021/12/09 06:11:57;;;;;;;15.82;7.57;;;;;;;2.92;100.00;98694.19;8210838;28;20399;-82
2021/12/09 06:15:58;;;;;;;16.90;8.43;;;;;;;2.94;100.00;98688.50;8225201;28;20131;-83
2021/12/09 06:19:59;;;;;;;22.00;7.70;;;;;;;2.96;100.00;98692.66;8219269;28;20043;-82
2021/12/09 06:24:01;;;;;;;16.92;7.32;;;;;;;2.92;100.00;98696.06;8212500;28;20109;-82
2021/12/09 06:28:01;;;;;;;15.25;7.28;;;;;;;2.90;100.00;98704.44;8207788;28;20043;-82
2021/12/09 06:32:02;;;;;;;17.70;6.93;;;;;;;2.86;100.00;98700.53;8220038;28;20051;-80
2021/12/09 06:36:03;;;;;;;13.07;7.13;;;;;;;2.86;100.00;98686.09;8226803;28;20519;-83
2021/12/09 06:40:04;;;;;;;16.40;7.55;;;;;;;2.67;100.00;98694.25;8211467;28;20047;-80
2021/12/09 06:44:05;;;;;;;14.32;7.47;;;;;;;2.49;100.00;98708.66;8222785;28;20412;-83
2021/12/09 06:48:05;;;;;;;19.15;7.53;;;;;;;2.33;100.00;98717.41;8203236;28;20047;-81
2021/12/09 06:52:06;;;;;;;23.23;7.95;;;;;;;2.27;100.00;98727.28;8221559;28;20063;-83
2021/12/09 06:56:06;;;;;;;17.20;8.05;;;;;;;2.27;100.00;98743.59;8215247;28;20047;-82
2021/12/09 07:00:15;;;;;;;18.15;8.15;;;;;;;2.25;100.00;98742.16;8217334;28;20408;-81
2021/12/09 07:04:15;;;;;;;18.92;8.50;;;;;;;2.32;100.00;98748.38;8220440;28;20046;-82
2021/12/09 07:08:16;;;;;;;21.77;8.70;;;;;;;2.29;100.00;98746.09;8220139;28;20452;-76
2021/12/09 07:12:17;;;;;;;17.45;8.05;;;;;;;2.33;100.00;98755.47;8222983;28;20038;-83
2021/12/09 07:16:17;;;;;;;21.05;8.15;;;;;;;2.36;100.00;98765.91;8206731;28;20097;-82
2021/12/09 07:20:23;;;;;;;14.20;8.10;;;;;;;2.40;100.00;98766.28;8205455;28;20106;-81
2021/12/09 07:24:23;;;;;;;23.55;8.23;;;;;;;2.32;100.00;98767.41;8222247;28;20050;-83
2021/12/09 07:28:23;;;;;;;23.67;8.80;;;;;;;2.17;100.00;98762.28;8212708;28;20035;-82
2021/12/09 07:32:24;;;;;;;25.13;10.30;;;;;;;2.11;100.00;98771.31;8217383;28;20038;-81
2021/12/09 07:36:24;;;;;;;22.08;10.18;;;;;;;2.02;100.00;98772.63;8223147;28;20122;-83
2021/12/09 07:40:25;;;;;;;20.75;8.60;;;;;;;1.97;100.00;98775.19;8208232;28;20042;-83
2021/12/09 07:44:27;;;;;;;15.77;8.05;;;;;;;1.92;100.00;98780.44;8219969;28;20130;-81
2021/12/09 07:48:27;;;;;;;18.55;7.47;;;;;;;1.81;100.00;98780.09;8223584;28;20051;-82
2021/12/09 07:52:28;;;;;;;24.00;8.52;;;;;;;1.85;100.00;98780.50;8207304;28;20054;-81
2021/12/09 07:56:29;;;;;;;28.45;9.07;;;;;;;1.91;100.00;98789.66;8229456;28;20039;-80
2021/12/09 08:00:32;;;;;;;18.70;8.10;;;;;;;1.92;100.00;98788.59;8210722;28;20077;-80
2021/12/09 08:04:33;;;;;;;17.55;8.10;;;;;;;1.98;100.00;98788.53;8228548;28;20340;-83
2021/12/09 08:08:33;;;;;;;23.02;8.20;;;;;;;2.02;100.00;98797.09;8212409;28;20051;-81
2021/12/09 08:12:34;;;;;;;18.85;8.55;;;;;;;2.01;100.00;98798.16;8204204;28;20097;-82
2021/12/09 08:16:37;;;;;;;15.57;8.20;;;;;;;2.04;100.00;98793.09;8221993;28;20067;-82
2021/12/09 08:20:38;;;;;;;18.42;9.13;;;;;;;2.23;100.00;98801.31;8213361;28;20419;-81
2021/12/09 08:24:38;;;;;;;28.83;9.77;;;;;;;2.36;100.00;98792.25;8221922;28;20043;-82
2021/12/09 08:28:39;;;;;;;20.08;8.57;;;;;;;2.43;100.00;98801.19;8222943;28;20053;-82
2021/12/09 08:32:40;;;;;;;20.35;8.02;;;;;;;2.60;100.00;98801.47;8219934;28;20049;-83
2021/12/09 08:36:40;;;;;;;18.45;8.32;;;;;;;2.73;100.00;98796.72;8193991;28;20035;-82
2021/12/09 08:40:42;;;;;;;17.67;8.48;;;;;;;2.82;100.00;98813.56;8222117;28;20065;-81
2021/12/09 08:44:43;;;;;;;24.47;8.37;;;;;;;2.99;100.00;98816.56;8221538;28;20162;-82
2021/12/09 08:48:46;;;;;;;20.98;7.72;;;;;;;2.98;100.00;98833.97;8225058;28;20038;-82
2021/12/09 08:52:49;;;;;;;16.13;7.28;;;;;;;2.96;100.00;98844.22;8217349;28;20046;-80
2021/12/09 08:56:51;;;;;;;14.83;7.70;;;;;;;3.11;100.00;98847.41;8224372;28;20038;-81
2021/12/09 09:00:53;;;;;;;18.17;7.33;;;;;;;3.12;100.00;98840.06;8182578;28;21589;-81
2021/12/09 09:04:55;;;;;;;21.33;8.50;;;;;;;3.11;100.00;98852.88;8221746;28;20053;-80
2021/12/09 09:08:58;;;;;;;18.53;7.40;;;;;;;3.14;100.00;98852.41;8201287;28;20055;-80
2021/12/09 09:12:59;;;;;;;21.37;8.53;;;;;;;3.05;100.00;98851.03;8226575;28;20089;-81
2021/12/09 09:17:00;;;;;;;19.13;7.65;;;;;;;3.17;100.00;98851.97;8192530;28;20357;-80
2021/12/09 09:21:00;;;;;;;18.58;8.85;;;;;;;3.09;100.00;98848.69;8219111;28;20582;-81
2021/12/09 09:25:01;;;;;;;18.25;8.18;;;;;;;3.18;100.00;98855.50;8210181;28;20511;-80
2021/12/09 09:29:02;;;;;;;22.02;8.82;;;;;;;3.23;100.00;98838.50;8189535;28;20054;-81
2021/12/09 09:33:15;;;;;;;20.40;8.90;;;;;;;3.32;100.00;98843.41;8221590;28;20524;-82
2021/12/09 09:37:16;;;;;;;34.22;9.85;;;;;;;3.40;100.00;98848.56;8222987;28;20030;-78
2021/12/09 09:41:17;;;;;;;16.33;8.05;;;;;;;3.60;100.00;98855.69;8197551;28;20093;-80
2021/12/09 09:45:18;;;;;;;18.35;8.27;;;;;;;3.72;99.23;98855.72;8180898;28;20115;-80
2021/12/09 09:49:18;;;;;;;20.33;8.10;;;;;;;3.68;98.22;98858.09;8220515;28;20039;-82
2021/12/09 09:53:19;;;;;;;20.35;7.95;;;;;;;3.73;98.02;98854.69;8203149;28;20055;-81
2021/12/09 09:57:19;;;;;;;22.63;8.02;;;;;;;3.82;97.83;98867.78;8208960;28;20067;-80
2021/12/09 10:01:22;;;;;;;15.75;7.82;;;;;;;3.76;97.66;98871.41;8224347;28;20130;-80
2021/12/09 10:05:28;;;;;;;26.80;9.35;;;;;;;3.80;97.14;98871.78;8207323;28;20039;-81
2021/12/09 10:09:29;;;;;;;21.08;8.07;;;;;;;3.86;96.93;98873.59;8196228;28;20047;-81
2021/12/09 10:13:32;;;;;;;22.48;9.38;;;;;;;3.85;96.99;98874.66;8209244;28;20492;-80
2021/12/09 10:17:32;;;;;;;;;;;;;;;3.85;96.86;98875.47;8231158;28;20126;-82
2021/12/09 10:21:33;;;;;;;28.02;9.45;;;;;;;3.86;96.14;98881.75;8219272;28;19926;-81
2021/12/09 10:25:33;;;;;;;20.77;8.07;;;;;;;3.92;96.39;98867.22;8210247;28;20051;-78
2021/12/09 10:29:40;;;;;;;20.55;8.10;;;;;;;3.79;95.69;98875.56;8227528;28;20047;-79
2021/12/09 10:34:01;;;;;;;47.85;7.88;;;;;;;3.73;95.70;98866.41;8218658;28;20111;-80
2021/12/09 10:38:03;;;;;;;19.77;8.05;;;;;;;3.71;96.80;98859.53;8204090;28;20054;-79
2021/12/09 10:42:29;;;;;;;18.57;8.27;;;;;;;3.84;96.42;98852.03;8226190;28;20062;-79
2021/12/09 10:46:48;;;;;;;22.40;7.97;;;;;;;3.86;95.62;98857.22;8222573;28;20068;-80
2021/12/09 10:55:11;;;;;;;17.20;7.55;;;;;;;3.94;94.22;98850.66;8210896;28;20043;-82
2021/12/09 10:59:11;;;;;;;14.52;6.90;;;;;;;4.06;94.36;98849.63;8212845;28;20554;-80
2021/12/09 11:03:18;;;;;;;19.63;7.57;;;;;;;4.18;94.10;98851.56;8212646;28;20047;-81
2021/12/09 11:07:28;;;;;;;16.38;6.93;;;;;;;4.31;93.45;98851.34;8220486;28;20106;-80
2021/12/09 11:11:35;;;;;;;20.90;7.70;;;;;;;4.46;92.69;98849.06;8220920;28;20035;-80
2021/12/09 11:15:52;;;;;;;41.70;10.18;;;;;;;4.50;92.84;98843.97;8216848;28;20034;-80
2021/12/09 11:19:55;;;;;;;51.97;14.05;;;;;;;4.58;92.17;98854.53;8221436;28;20047;-81
2021/12/09 11:24:08;;;;;;;;;;;;;;;4.50;90.98;98858.41;8209225;28;20057;-82
2021/12/09 11:28:12;;;;;;;23.63;8.45;;;;;;;4.44;90.04;98853.91;8230787;28;19914;-79
2021/12/09 11:32:24;;;;;;;16.98;8.32;;;;;;;4.47;90.27;98847.16;8228823;28;20097;-81
2021/12/09 11:36:40;;;;;;;23.20;9.20;;;;;;;4.49;90.98;98848.59;8218674;28;20130;-80
2021/12/09 11:40:46;;;;;;;19.23;7.57;;;;;;;4.33;89.56;98847.34;8224570;28;20342;-78
2021/12/09 11:44:47;;;;;;;17.40;7.07;;;;;;;4.38;90.02;98845.81;8226240;28;20049;-81
2021/12/09 11:48:47;;;;;;;15.93;6.72;;;;;;;4.27;88.46;98851.00;8223649;28;20094;-82
2021/12/09 11:52:51;;;;;;;17.00;6.57;;;;;;;4.43;89.22;98845.94;8215538;28;20038;-80
2021/12/09 11:57:09;;;;;;;16.90;7.40;;;;;;;4.50;89.43;98841.22;8225192;28;20039;-80
2021/12/09 12:14:25;;;;;;;23.60;7.68;;;;;;;4.59;89.13;98841.72;8209862;28;20047;-81
2021/12/09 12:18:41;;;;;;;23.27;9.10;;;;;;;4.39;88.97;98840.13;8218084;28;20046;-81
2021/12/09 12:27:09;;;;;;;23.95;8.20;;;;;;;4.10;90.86;98839.94;8226782;28;20078;-80
2021/12/09 12:43:55;;;;;;;18.77;8.57;;;;;;;4.03;90.91;98825.56;8224306;28;20046;-81
2021/12/09 12:48:21;;;;;;;27.00;8.68;;;;;;;3.97;91.22;98829.22;8197076;28;20419;-80
2021/12/09 12:52:28;;;;;;;20.70;9.10;;;;;;;4.07;91.58;98826.75;8218923;28;20049;-81
2021/12/09 12:56:40;;;;;;;20.55;8.65;;;;;;;4.03;91.13;98814.66;8217202;28;20559;-81
2021/12/09 13:00:47;;;;;;;20.83;8.55;;;;;;;4.07;91.67;98806.84;8221051;28;20042;-80
2021/12/09 13:04:59;;;;;;;36.55;10.25;;;;;;;4.17;91.29;98795.38;8227085;28;20047;-80
2021/12/09 13:09:24;;;;;;;25.52;7.25;;;;;;;4.25;90.42;98792.28;8229838;28;20051;-81
2021/12/09 13:13:42;;;;;;;13.82;6.60;;;;;;;4.14;89.43;98783.03;8206286;28;20051;-81
2021/12/09 13:17:52;;;;;;;18.60;7.28;;;;;;;4.47;89.46;98784.41;8208841;28;20043;-81
2021/12/09 13:21:57;;;;;;;20.88;7.30;;;;;;;4.64;88.90;98779.06;8214742;28;20043;-82
2021/12/09 13:26:26;;;;;;;21.10;7.45;;;;;;;4.67;87.99;98786.78;8228574;28;20046;-81
2021/12/09 13:31:00;;;;;;;17.13;7.35;;;;;;;4.69;87.66;98790.13;8226611;28;20057;-81
2021/12/09 13:35:11;;;;;;;20.17;7.22;;;;;;;4.59;87.88;98801.63;8226786;28;20046;-80
2021/12/09 13:55:49;;;;;;;19.00;7.00;;;;;;;4.19;88.30;98791.34;8224104;28;20042;-78
2021/12/09 13:59:49;;;;;;;12.68;6.63;;;;;;;4.16;88.20;98789.06;8225666;28;20081;-80
2021/12/09 14:03:49;;;;;;;19.17;6.97;;;;;;;4.13;88.41;98794.16;8215647;28;20042;-81
2021/12/09 14:07:58;;;;;;;15.50;6.07;;;;;;;4.05;89.01;98798.91;8218623;28;20039;-77
2021/12/09 14:12:02;;;;;;;14.82;6.65;;;;;;;4.03;88.96;98795.56;8202576;28;20042;-80
2021/12/09 14:16:09;;;;;;;19.05;7.50;;;;;;;4.07;89.39;98796.75;8202344;28;20040;-79
2021/12/09 14:20:20;;;;;;;16.35;6.13;;;;;;;4.10;89.07;98796.31;8216037;28;20076;-81
2021/12/09 14:24:24;;;;;;;11.70;5.68;;;;;;;4.09;89.61;98805.53;8211428;28;20050;-82
2021/12/09 14:28:25;;;;;;;17.45;6.22;;;;;;;4.13;89.85;98805.06;8217787;28;20113;-82
2021/12/09 14:32:30;;;;;;;13.63;6.35;;;;;;;4.01;89.31;98792.22;8211510;28;20046;-80
2021/12/09 14:36:31;;;;;;;15.93;6.35;;;;;;;4.05;89.89;98798.06;8217957;28;20445;-81
2021/12/09 14:40:35;;;;;;;16.83;5.78;;;;;;;4.04;89.44;98808.13;8222714;28;20043;-79
2021/12/09 14:44:36;;;;;;;13.98;5.65;;;;;;;4.00;89.73;98806.94;8188413;28;20047;-80
2021/12/09 14:48:40;;;;;;;13.77;5.35;;;;;;;3.95;89.79;98803.25;8223298;28;20122;-76
2021/12/09 14:52:43;;;;;;;13.48;4.95;;;;;;;3.98;90.15;98809.06;8218099;28;20101;-82
2021/12/09 14:57:01;;;;;;;10.88;5.30;;;;;;;3.99;90.49;98820.81;8203918;28;20484;-80
2021/12/09 15:01:13;;;;;;;12.00;5.68;;;;;;;4.00;90.20;98809.66;8226035;28;20048;-80
2021/12/09 15:05:17;;;;;;;11.88;5.55;;;;;;;3.98;90.36;98806.31;8215408;28;20039;-80
2021/12/09 15:09:20;;;;;;;12.88;4.97;;;;;;;3.89;90.39;98803.09;8192886;28;20043;-80
2021/12/09 15:13:27;;;;;;;16.02;6.18;;;;;;;3.80;90.56;98800.94;8226869;28;20507;-80
2021/12/09 15:17:28;;;;;;;16.27;5.90;;;;;;;3.92;91.01;98804.53;8208578;28;20058;-79
2021/12/09 15:21:30;;;;;;;17.20;6.13;;;;;;;4.02;90.74;98804.81;8215088;28;20039;-81
2021/12/09 15:25:33;;;;;;;13.85;5.65;;;;;;;4.10;90.65;98803.63;8226302;28;20047;-80
2021/12/09 15:29:34;;;;;;;15.45;6.10;;;;;;;4.16;90.65;98804.59;8241163;28;20100;-80
2021/12/09 15:33:45;;;;;;;10.85;5.25;;;;;;;4.11;90.56;98802.59;8238413;28;20058;-78
2021/12/09 15:37:46;;;;;;;12.88;5.00;;;;;;;4.06;90.78;98797.81;8227805;28;20105;-80
2021/12/09 15:41:51;;;;;;;16.15;5.53;;;;;;;4.08;90.70;98795.72;8211689;28;20043;-81
2021/12/09 15:45:58;;;;;;;15.05;6.45;;;;;;;4.08;90.92;98798.44;8200932;28;20045;-79
2021/12/09 15:50:09;;;;;;;12.30;6.05;;;;;;;4.06;90.79;98800.56;8201589;28;20137;-80
2021/12/09 15:54:12;;;;;;;14.80;6.00;;;;;;;4.06;90.45;98800.56;8224912;28;20039;-79
2021/12/09 15:58:14;;;;;;;14.45;4.85;;;;;;;4.06;91.04;98808.72;8210857;28;20045;-79
2021/12/09 16:02:18;;;;;;;12.65;5.22;;;;;;;4.05;90.48;98808.97;8203167;28;20070;-80
2021/12/09 16:06:20;;;;;;;12.63;5.40;;;;;;;4.05;90.60;98804.34;8211699;28;20587;-79
2021/12/09 16:10:22;;;;;;;;;;;;;;;4.08;91.40;98803.88;8185217;28;20417;-80
2021/12/09 16:14:25;;;;;;;11.52;4.55;;;;;;;4.03;91.07;98803.75;8211184;28;20005;-77
2021/12/09 16:18:28;;;;;;;17.05;4.57;;;;;;;4.00;91.37;98804.22;8213981;28;20584;-80
2021/12/09 16:22:29;;;;;;;13.73;4.65;;;;;;;4.02;90.76;98804.00;8197956;28;20043;-79
2021/12/09 16:26:31;;;;;;;14.05;4.82;;;;;;;4.00;91.14;98800.66;8212985;28;20130;-80
2021/12/09 16:30:31;;;;;;;11.43;4.22;;;;;;;4.02;91.15;98804.81;8191510;28;20696;-81
2021/12/09 16:34:32;;;;;;;8.57;4.03;;;;;;;4.08;91.28;98805.78;8213917;28;20310;-80
2021/12/09 16:38:37;;;;;;;11.68;4.18;;;;;;;4.05;91.17;98804.34;8228050;28;20038;-81
2021/12/09 16:42:38;;;;;;;16.17;3.95;;;;;;;4.03;90.88;98806.47;8216410;28;20046;-79
2021/12/09 16:46:41;;;;;;;14.77;3.13;;;;;;;4.07;90.86;98813.09;8225014;28;20057;-81
2021/12/09 16:50:44;;;;;;;;;;;;;;;4.00;91.15;98817.84;8200573;28;20553;-79
2021/12/09 16:54:48;;;;;;;14.18;2.80;;;;;;;4.08;90.84;98814.78;8190988;28;20319;-80
2021/12/09 16:58:58;;;;;;;11.75;3.60;;;;;;;4.04;90.61;98820.94;8213875;28;20481;-78
2021/12/09 17:03:01;;;;;;;11.63;4.75;;;;;;;4.04;90.75;98810.84;8205187;28;20042;-81
2021/12/09 17:07:02;;;;;;;15.60;4.75;;;;;;;4.07;90.08;98824.00;8223818;28;20051;-80
2021/12/09 17:11:02;;;;;;;9.32;3.25;;;;;;;4.03;90.55;98822.00;8212077;28;20046;-78
2021/12/09 17:15:09;;;;;;;10.85;3.28;;;;;;;4.09;90.83;98821.91;8225679;28;20061;-79
2021/12/09 17:19:11;;;;;;;9.75;2.67;;;;;;;4.09;89.44;98821.91;8215983;28;20038;-81
2021/12/09 17:23:12;;;;;;;10.00;3.47;;;;;;;4.06;90.15;98819.63;8213025;28;20424;-79
2021/12/09 17:27:13;;;;;;;8.30;2.58;;;;;;;4.05;90.37;98808.97;8215606;28;20043;-80
2021/12/09 17:31:20;;;;;;;8.20;3.65;;;;;;;4.03;90.54;98814.66;8233462;28;20419;-80
2021/12/09 17:35:29;;;;;;;10.40;3.17;;;;;;;4.05;91.41;98809.81;8217421;28;20035;-80
2021/12/09 17:39:32;;;;;;;10.95;3.22;;;;;;;4.06;91.55;98802.44;8230633;28;20050;-81
2021/12/09 17:43:33;;;;;;;7.90;3.17;;;;;;;4.11;91.57;98810.78;8228183;28;20723;-80
2021/12/09 17:47:33;;;;;;;8.35;3.40;;;;;;;4.10;91.73;98801.78;8225602;28;20054;-82
2021/12/09 17:51:43;;;;;;;10.70;4.25;;;;;;;4.08;92.35;98803.88;8228325;28;20562;-77
2021/12/09 17:55:45;;;;;;;13.80;3.95;;;;;;;3.95;95.10;98800.50;8209213;28;20067;-80
2021/12/09 17:59:45;;;;;;;7.88;3.17;;;;;;;3.95;95.80;98803.25;8215297;28;20039;-81
2021/12/09 18:04:38;;;;;;;12.68;3.88;;;;;;;3.94;97.88;98801.59;8218679;28;20042;-79
2021/12/09 18:08:39;;;;;;;13.52;4.18;;;;;;;3.94;97.08;98801.59;8217401;28;20047;-81
2021/12/09 18:12:39;;;;;;;19.58;4.93;;;;;;;3.87;98.78;98801.69;8232253;28;20104;-81
2021/12/09 18:16:43;;;;;;;19.35;5.18;;;;;;;3.81;99.53;98789.00;8206995;28;20043;-82
2021/12/09 18:20:44;;;;;;;14.95;4.40;;;;;;;3.84;100.00;98793.97;8203635;28;20039;-80
2021/12/09 18:24:44;;;;;;;11.55;4.70;;;;;;;3.77;100.00;98791.31;8184274;28;20133;-81
2021/12/09 18:28:45;;;;;;;15.10;7.15;;;;;;;3.70;100.00;98795.22;8227228;28;20074;-81
2021/12/09 18:32:45;;;;;;;16.67;4.88;;;;;;;3.73;100.00;98789.31;8222550;28;20090;-81
2021/12/09 18:36:50;;;;;;;13.93;5.40;;;;;;;3.73;100.00;98787.41;8227029;28;20127;-80
2021/12/09 18:40:57;;;;;;;10.88;4.43;;;;;;;3.69;100.00;98780.75;8225597;28;20047;-81
2021/12/09 18:44:59;;;;;;;14.77;5.90;;;;;;;3.69;100.00;98790.81;8212323;28;20583;-81
2021/12/09 18:49:00;;;;;;;12.98;4.93;;;;;;;3.74;100.00;98786.34;8228437;28;20507;-81
2021/12/09 18:53:01;;;;;;;12.70;4.80;;;;;;;3.66;100.00;98783.94;8211740;28;20043;-82
2021/12/09 18:57:01;;;;;;;13.65;5.70;;;;;;;3.65;100.00;98780.38;8203288;28;20078;-80
2021/12/09 19:01:04;;;;;;;16.95;6.45;;;;;;;3.71;100.00;98783.25;8221475;28;20054;-80
2021/12/09 19:05:07;;;;;;;12.60;3.75;;;;;;;3.64;100.00;98783.34;8221062;28;20098;-80
2021/12/09 19:09:10;;;;;;;9.90;4.18;;;;;;;3.61;100.00;98786.53;8216140;28;20051;-80
2021/12/09 19:13:12;;;;;;;19.08;5.70;;;;;;;3.63;100.00;98781.69;8218624;28;20510;-80
2021/12/09 19:17:27;;;;;;;11.15;4.18;;;;;;;3.64;100.00;98784.16;8219278;28;20055;-78
2021/12/09 19:21:27;;;;;;;7.85;3.97;;;;;;;3.64;100.00;98778.72;8205766;28;20050;-80
2021/12/09 19:25:29;;;;;;;9.10;3.83;;;;;;;3.66;100.00;98783.94;8218301;28;20121;-81
2021/12/09 19:29:31;;;;;;;14.48;4.20;;;;;;;3.69;100.00;98782.63;8219086;28;20101;-80
2021/12/09 19:33:33;;;;;;;12.82;3.67;;;;;;;3.71;100.00;98777.78;8223284;28;20080;-81
2021/12/09 19:37:34;;;;;;;12.27;3.88;;;;;;;3.70;100.00;98787.03;8229972;28;20495;-82
2021/12/09 19:41:35;;;;;;;11.70;3.33;;;;;;;3.65;100.00;98776.81;8214731;28;20035;-81
2021/12/09 19:45:36;;;;;;;8.80;3.80;;;;;;;3.70;100.00;98776.13;8227319;28;20046;-80
2021/12/09 19:50:04;;;;;;;13.55;3.55;;;;;;;3.70;100.00;98776.13;8217743;28;20181;-81
2021/12/09 19:54:05;;;;;;;10.40;3.80;;;;;;;3.72;100.00;98777.56;8221597;28;20590;-78